Time;durP1;ratioP1;P1;durP2;ratioP2;P2;SDS_P1;SDS_P2;PMS_P1;PMS_P2;Temp;Humidity;BMP_temperature;BMP_pressure;BME280_temperature;BME280_humidity;BME280_pressure;Samples;Min_cycle;Max_cycle;Signal;HPM_P1;HPM_P2
2022/03/21 00:01:27;;;;;;;192.00;60.40;;;;;;;;;;5096958;28;20218;-51
2022/03/21 00:03:55;;;;;;;181.73;57.77;;;;;;;;;;5096898;28;20254;-52
2022/03/21 00:06:22;;;;;;;166.57;52.47;;;;;;;;;;5097022;28;20309;-51
2022/03/21 00:08:49;;;;;;;115.97;41.07;;;;;;;;;;5096787;28;20230;-51
2022/03/21 00:11:17;;;;;;;116.57;40.73;;;;;;;;;;5097019;28;20259;-52
2022/03/21 00:13:44;;;;;;;444.90;100.60;;;;;;;;;;5096579;28;20207;-51
2022/03/21 00:16:12;;;;;;;320.73;78.20;;;;;;;;;;5096624;28;20293;-51
2022/03/21 00:18:40;;;;;;;161.43;45.17;;;;;;;;;;5096698;28;20233;-52
2022/03/21 00:21:07;;;;;;;121.80;39.43;;;;;;;;;;5096697;28;20207;-51
2022/03/21 00:23:35;;;;;;;73.67;29.60;;;;;;;;;;5095419;28;20210;-53
2022/03/21 00:26:03;;;;;;;64.07;25.43;;;;;;;;;;5097375;28;20317;-51
2022/03/21 00:28:30;;;;;;;93.27;31.90;;;;;;;;;;5096713;28;20219;-51
2022/03/21 00:30:59;;;;;;;65.30;28.77;;;;;;;;;;5079018;28;20187;-51
2022/03/21 00:33:26;;;;;;;68.17;27.20;;;;;;;;;;5096273;28;20218;-52
2022/03/21 00:35:54;;;;;;;53.87;24.67;;;;;;;;;;5079239;28;20285;-52
2022/03/21 00:38:21;;;;;;;60.87;24.83;;;;;;;;;;5096702;28;20332;-51
2022/03/21 00:40:49;;;;;;;54.90;22.10;;;;;;;;;;5079394;28;20198;-51
2022/03/21 00:43:22;;;;;;;56.30;24.20;;;;;;;;;;5078717;28;20633;-52
2022/03/21 00:45:54;;;;;;;54.67;23.57;;;;;;;;;;5096597;28;20223;-52
2022/03/21 00:48:22;;;;;;;45.73;21.50;;;;;;;;;;5096203;28;20194;-51
2022/03/21 00:50:50;;;;;;;39.83;20.50;;;;;;;;;;5096830;28;20240;-52
2022/03/21 00:53:18;;;;;;;41.67;20.73;;;;;;;;;;5096714;28;20221;-52
2022/03/21 00:55:46;;;;;;;46.23;22.27;;;;;;;;;;5096551;28;20230;-52
2022/03/21 00:58:13;;;;;;;47.67;22.00;;;;;;;;;;5096138;28;20229;-51
2022/03/21 01:00:41;;;;;;;66.90;30.60;;;;;;;;;;5096029;28;20238;-51
2022/03/21 01:03:09;;;;;;;73.30;33.17;;;;;;;;;;5095875;28;20226;-51
2022/03/21 01:05:37;;;;;;;83.00;37.23;;;;;;;;;;5079286;28;20281;-53
2022/03/21 01:08:04;;;;;;;78.10;36.60;;;;;;;;;;5095615;28;20694;-52
2022/03/21 01:10:32;;;;;;;71.30;31.03;;;;;;;;;;5077692;28;20211;-53
2022/03/21 01:12:59;;;;;;;64.50;31.60;;;;;;;;;;5075368;28;20625;-52
2022/03/21 01:15:27;;;;;;;72.13;31.83;;;;;;;;;;5075467;28;20199;-55
2022/03/21 01:17:56;;;;;;;73.50;32.40;;;;;;;;;;5075414;28;20295;-54
2022/03/21 01:20:24;;;;;;;83.77;34.90;;;;;;;;;;5075211;28;20203;-51
2022/03/21 01:22:52;;;;;;;138.20;46.17;;;;;;;;;;5075559;28;20204;-51
2022/03/21 01:25:19;;;;;;;109.40;43.03;;;;;;;;;;5075149;28;20246;-51
2022/03/21 01:27:47;;;;;;;88.87;37.67;;;;;;;;;;5075261;28;20227;-52
2022/03/21 01:30:15;;;;;;;112.47;40.73;;;;;;;;;;5075328;28;20215;-52
2022/03/21 01:32:43;;;;;;;105.33;39.80;;;;;;;;;;5075249;28;20201;-52
2022/03/21 01:35:12;;;;;;;430.47;102.03;;;;;;;;;;5075255;28;20196;-51
2022/03/21 01:37:40;;;;;;;444.03;97.33;;;;;;;;;;5074856;28;20703;-54
2022/03/21 01:40:09;;;;;;;97.00;38.47;;;;;;;;;;5074946;28;20257;-51
2022/03/21 01:42:43;;;;;;;88.67;34.30;;;;;;;;;;5075012;28;20226;-51
2022/03/21 01:45:11;;;;;;;80.43;33.97;;;;;;;;;;5075141;28;20247;-51
2022/03/21 01:47:39;;;;;;;69.30;31.33;;;;;;;;;;5074620;28;20245;-54
2022/03/21 01:50:06;;;;;;;69.20;30.97;;;;;;;;;;5075066;28;20287;-51
2022/03/21 01:52:36;;;;;;;67.60;30.37;;;;;;;;;;5075016;28;20219;-53
2022/03/21 01:57:51;;;;;;;67.80;29.33;;;;;;;;;;5094898;28;20240;-52
2022/03/21 02:00:18;;;;;;;65.00;29.33;;;;;;;;;;5094789;28;20706;-51
2022/03/21 02:02:46;;;;;;;62.30;28.43;;;;;;;;;;5094974;28;20198;-52
2022/03/21 02:05:13;;;;;;;60.60;27.43;;;;;;;;;;5094977;28;20245;-54
2022/03/21 02:07:40;;;;;;;71.03;30.70;;;;;;;;;;5094982;28;20292;-53
2022/03/21 02:10:08;;;;;;;68.83;30.77;;;;;;;;;;5077438;28;20226;-54
2022/03/21 02:12:35;;;;;;;67.13;30.10;;;;;;;;;;5095338;28;20244;-53
2022/03/21 02:15:03;;;;;;;139.30;47.73;;;;;;;;;;5094692;28;20282;-53
2022/03/21 02:17:35;;;;;;;244.33;59.77;;;;;;;;;;5094761;28;20202;-55
2022/03/21 02:20:02;;;;;;;308.30;65.37;;;;;;;;;;5094794;28;20233;-52
2022/03/21 02:22:44;;;;;;;151.80;43.23;;;;;;;;;;5094623;28;20218;-52
2022/03/21 02:25:27;;;;;;;83.80;30.70;;;;;;;;;;5077198;28;20236;-51
2022/03/21 02:27:56;;;;;;;77.60;30.37;;;;;;;;;;5094628;28;20222;-52
2022/03/21 02:30:25;;;;;;;82.90;30.53;;;;;;;;;;5094404;28;20233;-51
2022/03/21 02:32:52;;;;;;;65.40;28.17;;;;;;;;;;5094746;28;20210;-53
2022/03/21 02:35:20;;;;;;;49.57;25.17;;;;;;;;;;5077122;28;20648;-51
2022/03/21 02:37:48;;;;;;;54.23;26.53;;;;;;;;;;5077410;28;20232;-51
2022/03/21 02:40:16;;;;;;;62.03;27.50;;;;;;;;;;5094700;28;20241;-52
2022/03/21 02:42:43;;;;;;;61.87;27.57;;;;;;;;;;5094656;28;20222;-52
2022/03/21 02:45:10;;;;;;;55.50;26.47;;;;;;;;;;5095005;28;20187;-51
2022/03/21 02:47:38;;;;;;;62.73;28.27;;;;;;;;;;5096515;28;20218;-53
2022/03/21 02:50:08;;;;;;;58.47;27.50;;;;;;;;;;5098557;28;20233;-51
2022/03/21 02:52:36;;;;;;;49.43;24.37;;;;;;;;;;5098352;28;20191;-52
2022/03/21 02:55:04;;;;;;;54.37;26.13;;;;;;;;;;5080712;28;20226;-51
2022/03/21 02:57:32;;;;;;;56.27;26.00;;;;;;;;;;5098185;28;20641;-51
2022/03/21 03:00:00;;;;;;;57.63;27.20;;;;;;;;;;5099065;28;20205;-54
2022/03/21 03:02:27;;;;;;;52.77;25.80;;;;;;;;;;5098449;28;20210;-50
2022/03/21 03:04:54;;;;;;;57.03;27.60;;;;;;;;;;5098609;28;20581;-51
2022/03/21 03:07:21;;;;;;;55.67;27.47;;;;;;;;;;5097793;28;20672;-50
2022/03/21 03:09:48;;;;;;;55.60;27.37;;;;;;;;;;5098217;28;20625;-51
2022/03/21 03:12:15;;;;;;;59.13;27.77;;;;;;;;;;5098217;28;20573;-54
2022/03/21 03:14:42;;;;;;;58.60;27.43;;;;;;;;;;5097943;28;20550;-51
2022/03/21 03:17:09;;;;;;;54.10;27.20;;;;;;;;;;5098121;28;20232;-51
2022/03/21 03:19:36;;;;;;;52.87;27.10;;;;;;;;;;5098029;28;20260;-51
2022/03/21 03:22:04;;;;;;;56.73;26.97;;;;;;;;;;5098095;28;20243;-53
2022/03/21 03:24:32;;;;;;;57.67;27.60;;;;;;;;;;5097677;28;20206;-52
2022/03/21 03:26:59;;;;;;;59.83;28.20;;;;;;;;;;5080286;28;20225;-50
2022/03/21 03:29:26;;;;;;;61.47;27.83;;;;;;;;;;5097593;28;20233;-52
2022/03/21 03:31:53;;;;;;;62.67;29.77;;;;;;;;;;5097700;28;20214;-53
2022/03/21 03:34:20;;;;;;;70.77;31.30;;;;;;;;;;5080001;28;20210;-50
2022/03/21 03:36:48;;;;;;;72.13;30.60;;;;;;;;;;5097570;28;20296;-53
2022/03/21 03:39:15;;;;;;;70.00;30.03;;;;;;;;;;5097347;28;20210;-50
2022/03/21 03:41:42;;;;;;;73.63;31.63;;;;;;;;;;5097377;28;20588;-54
2022/03/21 03:44:10;;;;;;;70.27;29.97;;;;;;;;;;5097824;28;20226;-51
2022/03/21 03:46:37;;;;;;;65.15;30.50;;;;;;;;;;5097520;28;20202;-55
2022/03/21 03:49:04;;;;;;;74.87;31.17;;;;;;;;;;5097388;28;20285;-53
2022/03/21 03:51:31;;;;;;;83.43;33.23;;;;;;;;;;5097368;28;20219;-54
2022/03/21 03:53:58;;;;;;;121.33;38.60;;;;;;;;;;5079466;28;20241;-50
2022/03/21 03:56:26;;;;;;;99.97;36.37;;;;;;;;;;5097222;28;20617;-55
2022/03/21 03:58:53;;;;;;;67.97;30.70;;;;;;;;;;5096724;28;20245;-55
2022/03/21 04:01:20;;;;;;;74.57;32.93;;;;;;;;;;5096854;28;20226;-54
2022/03/21 04:03:47;;;;;;;65.10;30.90;;;;;;;;;;5096585;28;20626;-51
2022/03/21 04:06:22;;;;;;;67.67;31.60;;;;;;;;;;5096552;28;20641;-54
2022/03/21 04:08:51;;;;;;;66.80;31.43;;;;;;;;;;5096581;28;20712;-54
2022/03/21 04:11:19;;;;;;;67.47;31.80;;;;;;;;;;5096554;28;20697;-52
2022/03/21 04:13:46;;;;;;;69.50;30.03;;;;;;;;;;5096629;28;20202;-52
2022/03/21 04:16:14;;;;;;;65.40;32.37;;;;;;;;;;5096408;28;20652;-51
2022/03/21 04:18:41;;;;;;;69.97;31.83;;;;;;;;;;5096396;28;20203;-50
2022/03/21 04:21:26;;;;;;;70.97;31.50;;;;;;;;;;5096987;28;20214;-52
2022/03/21 04:23:56;;;;;;;91.47;35.77;;;;;;;;;;5096416;28;20560;-54
2022/03/21 04:26:24;;;;;;;79.80;33.67;;;;;;;;;;5086303;28;20637;-53
2022/03/21 04:28:51;;;;;;;79.13;33.70;;;;;;;;;;5075336;28;20326;-55
2022/03/21 04:31:18;;;;;;;79.97;32.67;;;;;;;;;;5057078;28;20199;-55
2022/03/21 04:33:45;;;;;;;71.40;32.03;;;;;;;;;;5077029;28;20204;-54
2022/03/21 04:36:13;;;;;;;78.87;33.73;;;;;;;;;;5076627;28;20238;-53
2022/03/21 04:38:41;;;;;;;87.07;34.57;;;;;;;;;;5073222;28;20634;-54
2022/03/21 04:41:08;;;;;;;81.37;33.63;;;;;;;;;;5075375;28;20269;-53
2022/03/21 04:43:35;;;;;;;75.53;33.60;;;;;;;;;;5074614;28;20199;-54
2022/03/21 04:46:02;;;;;;;73.60;32.50;;;;;;;;;;5076133;28;20210;-52
2022/03/21 04:48:30;;;;;;;85.70;35.33;;;;;;;;;;5075809;28;20249;-55
2022/03/21 04:50:57;;;;;;;85.10;36.27;;;;;;;;;;5075685;28;20203;-53
2022/03/21 04:53:24;;;;;;;78.77;36.20;;;;;;;;;;5075285;28;20238;-53
2022/03/21 04:55:51;;;;;;;82.93;34.63;;;;;;;;;;5063537;28;20254;-50
2022/03/21 04:58:19;;;;;;;83.57;36.10;;;;;;;;;;5064730;28;20260;-55
2022/03/21 05:00:46;;;;;;;78.50;36.47;;;;;;;;;;5066324;28;20298;-55
2022/03/21 05:03:13;;;;;;;72.27;35.17;;;;;;;;;;5060535;28;20251;-51
2022/03/21 05:05:43;;;;;;;68.67;32.63;;;;;;;;;;5066699;28;20223;-52
2022/03/21 05:08:11;;;;;;;70.87;32.83;;;;;;;;;;5070438;28;20259;-51
2022/03/21 05:10:38;;;;;;;70.53;34.03;;;;;;;;;;5060575;28;20216;-50
2022/03/21 05:13:06;;;;;;;67.93;32.63;;;;;;;;;;5063160;28;20238;-51
2022/03/21 05:15:34;;;;;;;66.20;33.03;;;;;;;;;;5059880;28;20288;-50
2022/03/21 05:18:04;;;;;;;65.97;32.17;;;;;;;;;;5074907;28;20253;-50
2022/03/21 05:20:32;;;;;;;70.70;32.93;;;;;;;;;;5072101;28;20227;-53
2022/03/21 05:31:16;;;;;;;73.53;34.13;;;;;;;;;;5073918;28;20226;-54
2022/03/21 05:36:29;;;;;;;68.23;32.23;;;;;;;;;;5054262;28;20586;-55
2022/03/21 05:38:57;;;;;;;68.77;32.70;;;;;;;;;;5053979;28;20361;-56
2022/03/21 05:41:25;;;;;;;67.30;31.97;;;;;;;;;;5074036;28;20227;-55
2022/03/21 05:43:52;;;;;;;69.03;31.73;;;;;;;;;;5074098;28;20293;-54
2022/03/21 05:46:20;;;;;;;64.53;34.53;;;;;;;;;;5073656;28;20319;-55
2022/03/21 05:49:21;;;;;;;64.47;32.60;;;;;;;;;;5073987;28;20321;-50
2022/03/21 05:51:43;;;;;;;61.50;29.80;;;;;;;;;;5058820;28;20266;-53
2022/03/21 05:54:12;;;;;;;63.93;30.93;;;;;;;;;;5053108;28;20251;-53
2022/03/21 05:56:40;;;;;;;66.23;32.20;;;;;;;;;;5054438;28;20224;-52
2022/03/21 06:01:54;;;;;;;56.83;30.20;;;;;;;;;;5070750;28;20230;-51
2022/03/21 06:04:25;;;;;;;56.50;29.00;;;;;;;;;;5073602;28;20258;-53
2022/03/21 06:06:52;;;;;;;56.37;29.13;;;;;;;;;;5073240;28;20220;-58
2022/03/21 06:09:19;;;;;;;57.53;28.63;;;;;;;;;;5071904;28;20281;-55
2022/03/21 06:11:48;;;;;;;57.87;27.77;;;;;;;;;;5071692;28;20694;-59
2022/03/21 06:14:20;;;;;;;58.57;27.67;;;;;;;;;;5072159;28;20661;-57
2022/03/21 06:16:48;;;;;;;51.27;25.73;;;;;;;;;;5072377;28;20230;-57
2022/03/21 06:19:15;;;;;;;54.37;26.33;;;;;;;;;;5072246;28;20247;-56
2022/03/21 06:21:42;;;;;;;55.47;27.20;;;;;;;;;;5055638;28;20304;-52
2022/03/21 06:24:12;;;;;;;56.43;28.47;;;;;;;;;;5076626;28;20405;-55
2022/03/21 06:26:41;;;;;;;51.13;26.13;;;;;;;;;;5077431;28;20283;-52
2022/03/21 06:29:08;;;;;;;53.03;26.47;;;;;;;;;;5077081;28;20257;-55
2022/03/21 06:31:36;;;;;;;54.23;26.70;;;;;;;;;;5078266;28;20273;-53
2022/03/21 06:34:03;;;;;;;53.33;27.33;;;;;;;;;;5078132;28;20584;-51
2022/03/21 06:36:30;;;;;;;49.77;26.80;;;;;;;;;;5078614;28;20208;-51
2022/03/21 06:38:58;;;;;;;48.73;25.47;;;;;;;;;;5078215;28;20265;-51
2022/03/21 06:41:25;;;;;;;61.20;29.67;;;;;;;;;;5078351;28;20206;-51
2022/03/21 06:43:52;;;;;;;53.73;28.07;;;;;;;;;;5078205;28;20192;-51
2022/03/21 06:46:19;;;;;;;48.67;25.07;;;;;;;;;;5078151;28;20203;-51
2022/03/21 06:48:46;;;;;;;46.43;24.70;;;;;;;;;;5077912;28;20669;-52
2022/03/21 06:51:13;;;;;;;58.20;26.40;;;;;;;;;;5078344;28;20218;-53
2022/03/21 06:53:41;;;;;;;52.73;25.67;;;;;;;;;;5078688;28;20596;-51
2022/03/21 06:56:08;;;;;;;49.53;24.93;;;;;;;;;;5078370;28;20226;-51
2022/03/21 06:58:35;;;;;;;50.87;25.60;;;;;;;;;;5078044;28;20235;-51
2022/03/21 07:01:02;;;;;;;47.80;25.17;;;;;;;;;;5078302;28;20219;-51
2022/03/21 07:03:32;;;;;;;52.73;24.80;;;;;;;;;;5077830;28;20239;-51
2022/03/21 07:05:59;;;;;;;43.47;24.37;;;;;;;;;;5077985;28;20293;-51
2022/03/21 07:08:30;;;;;;;54.83;26.10;;;;;;;;;;5077854;28;20316;-51
2022/03/21 07:10:58;;;;;;;47.43;25.23;;;;;;;;;;5078113;28;20195;-50
2022/03/21 07:13:29;;;;;;;58.57;27.40;;;;;;;;;;5077839;28;20227;-50
2022/03/21 07:15:57;;;;;;;55.20;25.97;;;;;;;;;;5077549;28;20286;-52
2022/03/21 07:18:25;;;;;;;48.73;25.40;;;;;;;;;;5077805;28;20657;-50
2022/03/21 07:20:52;;;;;;;52.83;27.73;;;;;;;;;;5077900;28;20207;-52
2022/03/21 07:23:20;;;;;;;51.30;25.43;;;;;;;;;;5077534;28;20207;-55
2022/03/21 07:25:48;;;;;;;44.33;23.93;;;;;;;;;;5077627;28;20215;-53
2022/03/21 07:28:15;;;;;;;47.43;25.20;;;;;;;;;;5077323;28;20262;-51
2022/03/21 07:30:42;;;;;;;48.13;24.63;;;;;;;;;;5077875;28;20195;-51
2022/03/21 07:33:10;;;;;;;47.77;25.50;;;;;;;;;;5077031;28;20612;-50
2022/03/21 07:35:37;;;;;;;61.97;26.57;;;;;;;;;;5077851;28;20195;-54
2022/03/21 07:38:04;;;;;;;54.80;27.60;;;;;;;;;;5077472;28;20696;-54
2022/03/21 07:40:31;;;;;;;54.00;27.10;;;;;;;;;;5077450;28;20225;-51
2022/03/21 07:42:59;;;;;;;50.87;26.50;;;;;;;;;;5077352;28;20259;-52
2022/03/21 07:48:12;;;;;;;54.07;27.10;;;;;;;;;;5077074;28;20681;-51
2022/03/21 07:50:41;;;;;;;52.07;27.03;;;;;;;;;;5059695;28;20230;-51
2022/03/21 07:53:10;;;;;;;51.63;26.60;;;;;;;;;;5077204;28;20203;-51
2022/03/21 07:55:37;;;;;;;54.20;28.00;;;;;;;;;;5076881;28;20298;-52
2022/03/21 07:58:06;;;;;;;65.40;29.40;;;;;;;;;;5076885;28;20646;-56
2022/03/21 08:00:33;;;;;;;55.97;26.53;;;;;;;;;;5077221;28;20219;-52
2022/03/21 08:03:01;;;;;;;51.63;26.90;;;;;;;;;;5076628;28;20287;-54
2022/03/21 08:05:28;;;;;;;42.60;24.10;;;;;;;;;;5076953;28;20618;-54
2022/03/21 08:07:56;;;;;;;39.10;22.93;;;;;;;;;;5076752;28;20596;-51
2022/03/21 08:10:24;;;;;;;45.53;23.23;;;;;;;;;;5076666;28;20195;-52
2022/03/21 08:12:51;;;;;;;38.87;23.00;;;;;;;;;;5076781;28;20296;-50
2022/03/21 08:15:18;;;;;;;43.13;23.20;;;;;;;;;;5076810;28;20527;-51
2022/03/21 08:17:57;;;;;;;40.50;22.80;;;;;;;;;;5076800;28;20210;-51
2022/03/21 08:20:35;;;;;;;36.10;22.97;;;;;;;;;;5076126;28;20195;-51
2022/03/21 08:23:06;;;;;;;35.33;20.47;;;;;;;;;;5075621;28;20649;-55
2022/03/21 08:25:35;;;;;;;38.10;21.23;;;;;;;;;;5075591;28;20265;-51
2022/03/21 08:28:04;;;;;;;37.17;20.40;;;;;;;;;;5058976;28;20200;-51
2022/03/21 08:30:35;;;;;;;39.17;21.00;;;;;;;;;;5076550;28;20234;-51
2022/03/21 08:33:05;;;;;;;37.83;21.93;;;;;;;;;;5076457;28;20205;-51
2022/03/21 08:35:36;;;;;;;39.07;22.97;;;;;;;;;;5076217;28;20558;-52
2022/03/21 08:38:07;;;;;;;43.20;22.10;;;;;;;;;;5076218;28;20638;-54
2022/03/21 08:40:36;;;;;;;37.27;21.50;;;;;;;;;;5076467;28;20219;-55
2022/03/21 08:43:04;;;;;;;39.60;21.30;;;;;;;;;;5076166;28;20201;-51
2022/03/21 08:45:32;;;;;;;39.20;21.13;;;;;;;;;;5075228;28;20223;-51
2022/03/21 08:47:59;;;;;;;36.77;20.33;;;;;;;;;;5076041;28;20286;-54
2022/03/21 08:50:27;;;;;;;33.27;19.97;;;;;;;;;;5076328;28;20625;-55
2022/03/21 08:52:57;;;;;;;36.17;21.13;;;;;;;;;;5076080;28;20204;-53
2022/03/21 08:55:24;;;;;;;37.30;19.80;;;;;;;;;;5075909;28;20230;-51
2022/03/21 08:57:52;;;;;;;34.00;19.93;;;;;;;;;;5075944;28;20575;-51
2022/03/21 09:00:19;;;;;;;32.40;19.63;;;;;;;;;;5075566;28;20650;-52
2022/03/21 09:02:48;;;;;;;33.53;19.90;;;;;;;;;;5075611;28;20265;-53
2022/03/21 09:05:17;;;;;;;39.05;20.73;;;;;;;;;;5075893;28;20277;-53
2022/03/21 09:07:44;;;;;;;31.73;20.33;;;;;;;;;;5075613;28;20228;-50
2022/03/21 09:10:14;;;;;;;41.53;21.27;;;;;;;;;;5075649;28;20592;-55
2022/03/21 09:12:44;;;;;;;30.42;19.63;;;;;;;;;;5075498;28;20214;-54
2022/03/21 09:15:11;;;;;;;33.10;19.70;;;;;;;;;;5075638;28;20236;-52
2022/03/21 09:17:39;;;;;;;34.28;18.85;;;;;;;;;;5075406;28;20617;-52
2022/03/21 09:20:07;;;;;;;29.95;18.15;;;;;;;;;;5075644;28;20226;-53
2022/03/21 09:22:34;;;;;;;27.70;16.75;;;;;;;;;;5075644;28;20273;-52
2022/03/21 09:25:02;;;;;;;27.92;17.20;;;;;;;;;;5075353;28;20684;-53
2022/03/21 09:27:29;;;;;;;30.42;18.80;;;;;;;;;;5075681;28;20200;-52
2022/03/21 09:29:56;;;;;;;32.85;18.33;;;;;;;;;;5075414;28;20251;-52
2022/03/21 09:32:25;;;;;;;29.30;17.00;;;;;;;;;;5075630;28;20536;-53
2022/03/21 09:34:52;;;;;;;24.52;14.93;;;;;;;;;;5075361;28;20233;-53
2022/03/21 09:37:19;;;;;;;23.55;14.93;;;;;;;;;;5075272;28;20532;-52
2022/03/21 09:39:46;;;;;;;25.45;15.70;;;;;;;;;;5074848;28;20269;-52
2022/03/21 09:42:14;;;;;;;25.80;15.52;;;;;;;;;;5075806;28;20230;-54
2022/03/21 09:44:41;;;;;;;23.52;13.38;;;;;;;;;;5075186;28;20584;-51
2022/03/21 09:49:58;;;;;;;22.88;14.52;;;;;;;;;;5074517;28;20247;-54
2022/03/21 09:52:26;;;;;;;29.48;15.60;;;;;;;;;;5075060;28;20227;-51
2022/03/21 09:54:54;;;;;;;23.27;14.18;;;;;;;;;;5057417;28;20234;-51
2022/03/21 09:57:21;;;;;;;19.95;13.20;;;;;;;;;;5074952;28;20268;-52
2022/03/21 09:59:49;;;;;;;22.60;13.63;;;;;;;;;;5074803;28;20227;-55
2022/03/21 10:02:17;;;;;;;26.05;13.73;;;;;;;;;;5074694;28;20654;-55
2022/03/21 10:04:46;;;;;;;24.08;14.27;;;;;;;;;;5074832;28;20242;-56
2022/03/21 10:07:15;;;;;;;23.33;13.98;;;;;;;;;;5074913;28;20206;-56
2022/03/21 10:10:05;;;;;;;23.58;14.90;;;;;;;;;;5074595;28;20257;-53
2022/03/21 10:12:36;;;;;;;25.90;15.27;;;;;;;;;;5075138;28;20196;-55
2022/03/21 10:15:07;;;;;;;25.13;15.38;;;;;;;;;;5057180;28;20226;-53
2022/03/21 10:17:34;;;;;;;25.85;15.85;;;;;;;;;;5074632;28;20195;-56
2022/03/21 10:20:03;;;;;;;22.92;14.63;;;;;;;;;;5056361;28;20230;-52
2022/03/21 10:22:33;;;;;;;24.02;13.60;;;;;;;;;;5073802;28;20203;-55
2022/03/21 10:25:05;;;;;;;23.45;14.63;;;;;;;;;;5074142;28;20214;-54
2022/03/21 10:27:40;;;;;;;22.77;13.98;;;;;;;;;;5073736;28;20221;-56
2022/03/21 10:30:18;;;;;;;21.95;14.65;;;;;;;;;;5074696;28;20612;-55
2022/03/21 10:32:59;;;;;;;21.80;13.65;;;;;;;;;;5074815;28;20629;-53
2022/03/21 10:35:31;;;;;;;28.70;16.00;;;;;;;;;;5074594;28;20268;-54
2022/03/21 10:38:01;;;;;;;23.20;14.65;;;;;;;;;;5074502;28;20222;-55
2022/03/21 10:40:42;;;;;;;28.48;14.07;;;;;;;;;;5074331;28;20210;-55
2022/03/21 10:43:14;;;;;;;23.35;13.57;;;;;;;;;;5075080;28;20199;-56
2022/03/21 10:45:43;;;;;;;22.65;13.50;;;;;;;;;;5074868;28;20191;-54
2022/03/21 10:48:12;;;;;;;21.05;13.23;;;;;;;;;;5074422;28;20257;-53
2022/03/21 10:50:42;;;;;;;22.33;14.07;;;;;;;;;;5074185;28;20214;-54
2022/03/21 10:53:14;;;;;;;21.25;13.88;;;;;;;;;;5074537;28;20274;-53
2022/03/21 10:55:48;;;;;;;22.15;13.65;;;;;;;;;;5074459;28;20286;-53
2022/03/21 10:58:18;;;;;;;26.67;14.80;;;;;;;;;;5074800;28;20250;-55
2022/03/21 11:00:45;;;;;;;24.77;14.95;;;;;;;;;;5056717;28;20330;-54
2022/03/21 11:03:17;;;;;;;23.17;14.60;;;;;;;;;;5074105;28;20227;-55
2022/03/21 11:05:47;;;;;;;24.20;14.73;;;;;;;;;;5074447;28;20204;-55
2022/03/21 11:08:17;;;;;;;20.02;12.48;;;;;;;;;;5075612;28;20585;-53
2022/03/21 11:10:45;;;;;;;23.38;15.27;;;;;;;;;;5077754;28;20210;-52
2022/03/21 11:13:13;;;;;;;22.55;14.60;;;;;;;;;;5077814;28;20215;-56
2022/03/21 11:15:41;;;;;;;24.58;15.18;;;;;;;;;;5077977;28;20298;-55
2022/03/21 11:18:10;;;;;;;22.80;15.88;;;;;;;;;;5077592;28;20207;-53
2022/03/21 11:20:37;;;;;;;28.13;17.27;;;;;;;;;;5077629;28;20227;-57
2022/03/21 11:23:05;;;;;;;26.83;16.52;;;;;;;;;;5077829;28;20292;-52
2022/03/21 11:25:36;;;;;;;29.13;16.98;;;;;;;;;;5077672;28;20244;-55
2022/03/21 11:28:48;;;;;;;24.52;16.30;;;;;;;;;;5043503;28;20235;-53
2022/03/21 11:31:17;;;;;;;30.52;17.33;;;;;;;;;;5060393;28;20195;-52
2022/03/21 11:34:00;;;;;;;27.45;16.90;;;;;;;;;;5060144;28;20214;-55
2022/03/21 11:36:30;;;;;;;28.25;16.50;;;;;;;;;;5078037;28;20541;-56
2022/03/21 11:39:00;;;;;;;31.65;17.88;;;;;;;;;;5077199;28;20234;-57
2022/03/21 11:41:30;;;;;;;26.73;16.90;;;;;;;;;;5077317;28;20230;-56
2022/03/21 11:44:03;;;;;;;27.45;17.40;;;;;;;;;;5077199;28;20552;-56
2022/03/21 11:46:36;;;;;;;33.83;20.30;;;;;;;;;;5077467;28;20199;-55
2022/03/21 11:49:05;;;;;;;26.27;17.17;;;;;;;;;;5075982;28;20195;-55
2022/03/21 11:51:43;;;;;;;33.40;18.00;;;;;;;;;;5056225;28;20198;-56
2022/03/21 11:54:30;;;;;;;27.58;17.02;;;;;;;;;;5075822;28;20179;-55
2022/03/21 11:57:27;;;;;;;30.52;17.15;;;;;;;;;;5075163;28;20701;-59
2022/03/21 11:59:56;;;;;;;25.42;16.70;;;;;;;;;;5074614;28;20219;-56
2022/03/21 12:02:23;;;;;;;27.25;17.70;;;;;;;;;;5073355;28;20222;-57
2022/03/21 12:04:58;;;;;;;24.38;16.17;;;;;;;;;;5073383;28;20227;-58
2022/03/21 12:07:28;;;;;;;27.85;17.95;;;;;;;;;;5073680;28;20207;-57
2022/03/21 12:09:56;;;;;;;40.90;22.73;;;;;;;;;;5075927;28;20227;-56
2022/03/21 12:12:51;;;;;;;26.85;16.77;;;;;;;;;;5076279;28;20626;-57
2022/03/21 12:15:31;;;;;;;26.63;16.10;;;;;;;;;;5076997;28;20192;-57
2022/03/21 12:17:58;;;;;;;26.45;16.92;;;;;;;;;;5060065;28;20206;-57
2022/03/21 12:20:25;;;;;;;28.30;16.35;;;;;;;;;;5076491;28;20258;-56
2022/03/21 12:23:19;;;;;;;26.38;15.07;;;;;;;;;;5076574;28;20210;-56
2022/03/21 12:25:48;;;;;;;29.33;15.68;;;;;;;;;;5076547;28;20172;-57
2022/03/21 12:31:23;;;;;;;26.27;15.73;;;;;;;;;;5075678;28;20219;-57
2022/03/21 12:33:50;;;;;;;29.08;16.05;;;;;;;;;;5076131;28;20626;-56
2022/03/21 12:36:31;;;;;;;22.85;15.45;;;;;;;;;;5076083;28;20234;-57
2022/03/21 12:38:58;;;;;;;23.48;15.23;;;;;;;;;;5076363;28;20196;-56
2022/03/21 12:41:32;;;;;;;23.70;15.60;;;;;;;;;;5076022;28;20630;-57
2022/03/21 12:44:00;;;;;;;21.58;16.13;;;;;;;;;;5076475;28;20245;-57
2022/03/21 12:46:28;;;;;;;40.75;20.83;;;;;;;;;;5076247;28;20373;-57
2022/03/21 12:49:01;;;;;;;25.92;15.20;;;;;;;;;;5076118;28;20199;-57
2022/03/21 12:51:29;;;;;;;24.63;16.52;;;;;;;;;;5076117;28;20203;-57
2022/03/21 12:54:16;;;;;;;28.63;16.40;;;;;;;;;;5075870;28;20257;-58
2022/03/21 12:56:43;;;;;;;20.55;14.90;;;;;;;;;;5058391;28;20210;-56
2022/03/21 12:59:10;;;;;;;21.95;14.95;;;;;;;;;;5070663;28;20203;-57
2022/03/21 13:01:42;;;;;;;28.50;15.07;;;;;;;;;;5075566;28;20230;-58
2022/03/21 13:12:41;;;;;;;21.70;14.50;;;;;;;;;;5095228;28;20198;-57
2022/03/21 13:15:11;;;;;;;20.00;13.82;;;;;;;;;;5078406;28;20727;-57
2022/03/21 13:17:43;;;;;;;24.77;15.35;;;;;;;;;;5086935;28;20218;-57
2022/03/21 13:20:12;;;;;;;24.80;13.48;;;;;;;;;;5095701;28;20271;-58
2022/03/21 13:22:40;;;;;;;24.67;14.32;;;;;;;;;;5095582;28;20203;-57
2022/03/21 13:25:24;;;;;;;18.63;12.93;;;;;;;;;;5095332;28;20194;-57
2022/03/21 13:28:04;;;;;;;19.83;13.10;;;;;;;;;;5089205;28;20218;-57
2022/03/21 13:30:32;;;;;;;20.83;13.23;;;;;;;;;;5057274;28;20199;-57
2022/03/21 13:32:59;;;;;;;27.77;13.45;;;;;;;;;;5074442;28;20227;-57
2022/03/21 13:35:26;;;;;;;18.95;12.82;;;;;;;;;;5071782;28;20200;-57
2022/03/21 13:38:05;;;;;;;22.00;12.85;;;;;;;;;;5072005;28;20231;-55
2022/03/21 13:40:43;;;;;;;20.00;11.65;;;;;;;;;;5060282;28;20206;-58
2022/03/21 13:43:18;;;;;;;20.75;13.50;;;;;;;;;;5063713;28;20302;-59
2022/03/21 13:45:45;;;;;;;19.65;12.23;;;;;;;;;;5061607;28;20231;-57
2022/03/21 13:48:41;;;;;;;22.20;12.77;;;;;;;;;;5072902;28;20310;-59
2022/03/21 13:51:20;;;;;;;21.80;12.35;;;;;;;;;;5073905;28;20580;-57
2022/03/21 13:53:49;;;;;;;21.65;12.60;;;;;;;;;;5073324;28;20250;-56
2022/03/21 13:56:28;;;;;;;23.98;13.25;;;;;;;;;;5081116;28;20270;-57
2022/03/21 13:59:17;;;;;;;19.83;12.25;;;;;;;;;;5076861;28;20269;-56
2022/03/21 14:01:46;;;;;;;20.52;12.77;;;;;;;;;;5056587;28;20243;-55
2022/03/21 14:04:30;;;;;;;21.75;13.38;;;;;;;;;;5056239;28;20243;-57
2022/03/21 14:07:05;;;;;;;20.23;13.10;;;;;;;;;;5073703;28;20226;-56
2022/03/21 14:09:33;;;;;;;24.25;14.40;;;;;;;;;;5073838;28;20273;-57
2022/03/21 14:12:01;;;;;;;25.25;13.95;;;;;;;;;;5081188;28;20218;-55
2022/03/21 14:14:28;;;;;;;29.17;15.90;;;;;;;;;;5094571;28;20210;-56
2022/03/21 14:16:56;;;;;;;27.73;15.77;;;;;;;;;;5077322;28;20214;-55
2022/03/21 14:19:23;;;;;;;27.65;15.50;;;;;;;;;;5094939;28;20564;-55
2022/03/21 14:21:50;;;;;;;25.80;16.48;;;;;;;;;;5094520;28;20611;-55
2022/03/21 14:24:17;;;;;;;25.48;16.08;;;;;;;;;;5094689;28;20226;-56
2022/03/21 14:26:44;;;;;;;24.58;14.48;;;;;;;;;;5093012;28;20668;-56
2022/03/21 14:29:14;;;;;;;23.77;15.02;;;;;;;;;;5074401;28;20272;-55
2022/03/21 14:31:42;;;;;;;23.02;14.45;;;;;;;;;;5073581;28;20231;-55
2022/03/21 14:34:14;;;;;;;22.88;15.13;;;;;;;;;;5070295;28;20581;-57
2022/03/21 14:36:45;;;;;;;22.42;13.68;;;;;;;;;;5076722;28;20276;-55
2022/03/21 14:39:12;;;;;;;24.42;15.80;;;;;;;;;;5090241;28;20265;-55
2022/03/21 14:41:39;;;;;;;22.58;13.05;;;;;;;;;;5073135;28;20251;-55
2022/03/21 14:44:06;;;;;;;25.75;14.25;;;;;;;;;;5075478;28;20195;-55
2022/03/21 14:46:37;;;;;;;24.60;13.02;;;;;;;;;;5077033;28;20219;-55
2022/03/21 14:49:05;;;;;;;22.52;13.35;;;;;;;;;;5076869;28;20278;-55
2022/03/21 14:51:35;;;;;;;20.45;12.60;;;;;;;;;;5076768;28;20199;-57
2022/03/21 14:54:03;;;;;;;21.70;12.88;;;;;;;;;;5076844;28;20191;-58
2022/03/21 14:56:32;;;;;;;19.23;12.45;;;;;;;;;;5076885;28;20226;-55
2022/03/21 14:58:59;;;;;;;23.65;12.68;;;;;;;;;;5076731;28;20524;-57
2022/03/21 15:01:26;;;;;;;22.13;13.43;;;;;;;;;;5073281;28;20246;-56
2022/03/21 15:03:55;;;;;;;21.00;13.75;;;;;;;;;;5076014;28;20616;-57